sensor_id;sensor_type;location;lat;lon;timestamp;pressure;altitude;pressure_sealevel;temperature;humidity
34034;BME280;63481;52.588;22.472;2024-01-06T00:00:16;99772.74;;;-3.07;100.00
34034;BME280;63481;52.588;22.472;2024-01-06T00:05:38;99774.62;;;-3.15;100.00
34034;BME280;63481;52.588;22.472;2024-01-06T00:10:40;99775.84;;;-3.11;100.00
34034;BME280;63481;52.588;22.472;2024-01-06T00:15:42;99781.52;;;-3.24;100.00
34034;BME280;63481;52.588;22.472;2024-01-06T00:20:44;99785.86;;;-3.30;100.00
34034;BME280;63481;52.588;22.472;2024-01-06T00:25:46;99785.77;;;-3.13;100.00
34034;BME280;63481;52.588;22.472;2024-01-06T00:30:48;99791.67;;;-3.17;100.00
34034;BME280;63481;52.588;22.472;2024-01-06T00:35:51;99791.39;;;-3.36;100.00
34034;BME280;63481;52.588;22.472;2024-01-06T00:40:52;99787.52;;;-3.33;100.00
34034;BME280;63481;52.588;22.472;2024-01-06T00:45:55;99784.98;;;-3.26;100.00
34034;BME280;63481;52.588;22.472;2024-01-06T00:50:57;99790.77;;;-3.27;100.00
34034;BME280;63481;52.588;22.472;2024-01-06T00:55:59;99788.98;;;-3.36;100.00
34034;BME280;63481;52.588;22.472;2024-01-06T01:01:01;99786.23;;;-3.45;100.00
34034;BME280;63481;52.588;22.472;2024-01-06T01:06:03;99781.11;;;-3.60;100.00
34034;BME280;63481;52.588;22.472;2024-01-06T01:11:05;99782.30;;;-3.58;100.00
34034;BME280;63481;52.588;22.472;2024-01-06T01:16:07;99788.14;;;-3.72;100.00
34034;BME280;63481;52.588;22.472;2024-01-06T01:21:09;99783.69;;;-3.64;100.00
34034;BME280;63481;52.588;22.472;2024-01-06T01:26:12;99780.61;;;-3.73;100.00
34034;BME280;63481;52.588;22.472;2024-01-06T01:31:14;99786.47;;;-3.71;100.00
34034;BME280;63481;52.588;22.472;2024-01-06T01:36:16;99790.27;;;-3.68;100.00
34034;BME280;63481;52.588;22.472;2024-01-06T01:41:20;99780.98;;;-3.57;100.00
34034;BME280;63481;52.588;22.472;2024-01-06T01:46:22;99775.07;;;-3.56;100.00
34034;BME280;63481;52.588;22.472;2024-01-06T01:51:27;99773.52;;;-3.67;100.00
34034;BME280;63481;52.588;22.472;2024-01-06T01:56:31;99771.71;;;-3.73;100.00
34034;BME280;63481;52.588;22.472;2024-01-06T02:01:36;99766.42;;;-3.61;100.00
34034;BME280;63481;52.588;22.472;2024-01-06T02:06:38;99764.39;;;-3.68;100.00
34034;BME280;63481;52.588;22.472;2024-01-06T02:11:40;99764.31;;;-3.84;100.00
34034;BME280;63481;52.588;22.472;2024-01-06T02:16:42;99773.41;;;-3.85;100.00
34034;BME280;63481;52.588;22.472;2024-01-06T02:21:57;99772.84;;;-3.84;100.00
34034;BME280;63481;52.588;22.472;2024-01-06T02:26:59;99765.38;;;-3.76;100.00
34034;BME280;63481;52.588;22.472;2024-01-06T02:32:01;99757.36;;;-3.78;100.00
34034;BME280;63481;52.588;22.472;2024-01-06T02:37:03;99750.91;;;-3.79;100.00
34034;BME280;63481;52.588;22.472;2024-01-06T02:42:05;99747.61;;;-3.85;100.00
34034;BME280;63481;52.588;22.472;2024-01-06T02:47:07;99742.10;;;-3.76;100.00
34034;BME280;63481;52.588;22.472;2024-01-06T02:52:10;99742.35;;;-3.75;100.00
34034;BME280;63481;52.588;22.472;2024-01-06T02:57:12;99738.98;;;-3.92;100.00
34034;BME280;63481;52.588;22.472;2024-01-06T03:02:15;99742.59;;;-4.00;100.00
34034;BME280;63481;52.588;22.472;2024-01-06T03:07:17;99746.08;;;-3.84;100.00
34034;BME280;63481;52.588;22.472;2024-01-06T03:12:19;99735.86;;;-3.78;100.00
34034;BME280;63481;52.588;22.472;2024-01-06T03:17:21;99734.42;;;-3.83;100.00
34034;BME280;63481;52.588;22.472;2024-01-06T03:22:23;99728.05;;;-3.86;100.00
34034;BME280;63481;52.588;22.472;2024-01-06T03:27:25;99731.55;;;-3.82;100.00
34034;BME280;63481;52.588;22.472;2024-01-06T03:32:27;99736.70;;;-3.80;100.00
34034;BME280;63481;52.588;22.472;2024-01-06T03:37:31;99737.48;;;-3.72;100.00
34034;BME280;63481;52.588;22.472;2024-01-06T03:42:33;99724.89;;;-3.65;100.00
34034;BME280;63481;52.588;22.472;2024-01-06T03:47:35;99715.66;;;-3.61;100.00
34034;BME280;63481;52.588;22.472;2024-01-06T03:52:37;99717.82;;;-3.68;100.00
34034;BME280;63481;52.588;22.472;2024-01-06T03:57:39;99730.63;;;-3.74;100.00
34034;BME280;63481;52.588;22.472;2024-01-06T04:02:41;99744.17;;;-3.67;100.00
34034;BME280;63481;52.588;22.472;2024-01-06T04:07:43;99749.16;;;-3.59;100.00
34034;BME280;63481;52.588;22.472;2024-01-06T04:12:45;99746.02;;;-3.67;100.00
34034;BME280;63481;52.588;22.472;2024-01-06T04:17:49;99741.00;;;-3.71;100.00
34034;BME280;63481;52.588;22.472;2024-01-06T04:22:51;99731.20;;;-3.80;100.00
34034;BME280;63481;52.588;22.472;2024-01-06T04:27:53;99735.09;;;-3.83;100.00
34034;BME280;63481;52.588;22.472;2024-01-06T04:32:55;99736.11;;;-3.91;100.00
34034;BME280;63481;52.588;22.472;2024-01-06T04:37:59;99739.95;;;-3.89;100.00
34034;BME280;63481;52.588;22.472;2024-01-06T04:43:01;99733.90;;;-3.94;100.00
34034;BME280;63481;52.588;22.472;2024-01-06T04:48:03;99727.67;;;-4.00;100.00
34034;BME280;63481;52.588;22.472;2024-01-06T04:53:06;99735.35;;;-3.80;100.00
34034;BME280;63481;52.588;22.472;2024-01-06T04:58:08;99738.33;;;-3.77;100.00
34034;BME280;63481;52.588;22.472;2024-01-06T05:03:10;99743.23;;;-3.81;100.00
34034;BME280;63481;52.588;22.472;2024-01-06T05:08:12;99746.16;;;-3.60;100.00
34034;BME280;63481;52.588;22.472;2024-01-06T05:13:14;99752.76;;;-3.54;100.00
34034;BME280;63481;52.588;22.472;2024-01-06T05:18:16;99757.27;;;-3.54;100.00
34034;BME280;63481;52.588;22.472;2024-01-06T05:23:19;99752.95;;;-3.58;100.00
34034;BME280;63481;52.588;22.472;2024-01-06T05:28:21;99762.94;;;-3.70;100.00
34034;BME280;63481;52.588;22.472;2024-01-06T05:33:23;99774.65;;;-3.66;100.00
34034;BME280;63481;52.588;22.472;2024-01-06T05:38:25;99777.09;;;-3.62;100.00
34034;BME280;63481;52.588;22.472;2024-01-06T05:43:27;99784.45;;;-3.65;100.00
34034;BME280;63481;52.588;22.472;2024-01-06T05:48:29;99784.58;;;-3.69;100.00
34034;BME280;63481;52.588;22.472;2024-01-06T05:53:31;99783.95;;;-3.71;100.00
34034;BME280;63481;52.588;22.472;2024-01-06T05:58:34;99794.29;;;-3.75;100.00
34034;BME280;63481;52.588;22.472;2024-01-06T06:03:36;99798.60;;;-3.74;100.00
34034;BME280;63481;52.588;22.472;2024-01-06T06:08:40;99801.77;;;-3.79;100.00
34034;BME280;63481;52.588;22.472;2024-01-06T06:13:44;99806.66;;;-3.69;100.00
34034;BME280;63481;52.588;22.472;2024-01-06T06:18:46;99809.71;;;-3.62;100.00
34034;BME280;63481;52.588;22.472;2024-01-06T06:23:48;99822.07;;;-3.71;100.00
34034;BME280;63481;52.588;22.472;2024-01-06T06:28:50;99823.30;;;-3.77;100.00
34034;BME280;63481;52.588;22.472;2024-01-06T06:33:52;99828.90;;;-3.77;100.00
34034;BME280;63481;52.588;22.472;2024-01-06T06:38:54;99833.29;;;-3.86;100.00
34034;BME280;63481;52.588;22.472;2024-01-06T06:43:57;99826.27;;;-3.81;100.00
34034;BME280;63481;52.588;22.472;2024-01-06T06:48:59;99820.81;;;-3.91;100.00
34034;BME280;63481;52.588;22.472;2024-01-06T06:54:01;99819.69;;;-3.98;100.00
34034;BME280;63481;52.588;22.472;2024-01-06T06:59:03;99824.17;;;-3.94;100.00
34034;BME280;63481;52.588;22.472;2024-01-06T07:04:06;99834.54;;;-3.87;100.00
34034;BME280;63481;52.588;22.472;2024-01-06T07:09:08;99830.96;;;-3.90;100.00
34034;BME280;63481;52.588;22.472;2024-01-06T07:14:10;99830.31;;;-3.69;100.00
34034;BME280;63481;52.588;22.472;2024-01-06T07:19:12;99826.74;;;-3.72;100.00
34034;BME280;63481;52.588;22.472;2024-01-06T07:24:14;99835.48;;;-3.54;100.00
34034;BME280;63481;52.588;22.472;2024-01-06T07:29:16;99839.82;;;-3.50;100.00
34034;BME280;63481;52.588;22.472;2024-01-06T07:34:18;99849.19;;;-3.46;100.00
34034;BME280;63481;52.588;22.472;2024-01-06T07:39:20;99853.96;;;-3.36;100.00
34034;BME280;63481;52.588;22.472;2024-01-06T07:44:22;99853.56;;;-3.27;100.00
34034;BME280;63481;52.588;22.472;2024-01-06T07:49:26;99857.79;;;-3.18;100.00
34034;BME280;63481;52.588;22.472;2024-01-06T07:54:28;99859.13;;;-3.15;100.00
34034;BME280;63481;52.588;22.472;2024-01-06T07:59:30;99863.08;;;-3.00;100.00
34034;BME280;63481;52.588;22.472;2024-01-06T08:04:32;99871.27;;;-3.05;100.00
34034;BME280;63481;52.588;22.472;2024-01-06T08:09:34;99880.23;;;-2.97;100.00
34034;BME280;63481;52.588;22.472;2024-01-06T08:14:36;99883.58;;;-2.86;100.00
34034;BME280;63481;52.588;22.472;2024-01-06T08:19:39;99889.08;;;-2.85;100.00
34034;BME280;63481;52.588;22.472;2024-01-06T08:24:41;99894.45;;;-2.83;100.00
34034;BME280;63481;52.588;22.472;2024-01-06T08:29:43;99897.61;;;-2.63;100.00
34034;BME280;63481;52.588;22.472;2024-01-06T08:34:45;99904.58;;;-2.67;100.00
34034;BME280;63481;52.588;22.472;2024-01-06T08:39:47;99909.27;;;-2.55;100.00
34034;BME280;63481;52.588;22.472;2024-01-06T08:44:50;99911.52;;;-2.41;100.00
34034;BME280;63481;52.588;22.472;2024-01-06T08:49:52;99915.44;;;-2.42;100.00
34034;BME280;63481;52.588;22.472;2024-01-06T08:54:54;99917.64;;;-2.54;100.00
34034;BME280;63481;52.588;22.472;2024-01-06T08:59:56;99914.94;;;-2.36;100.00
34034;BME280;63481;52.588;22.472;2024-01-06T09:04:58;99917.66;;;-2.43;100.00
34034;BME280;63481;52.588;22.472;2024-01-06T09:10:00;99918.22;;;-2.22;100.00
34034;BME280;63481;52.588;22.472;2024-01-06T09:15:03;99931.02;;;-2.00;100.00
34034;BME280;63481;52.588;22.472;2024-01-06T09:20:06;99935.23;;;-1.82;100.00
34034;BME280;63481;52.588;22.472;2024-01-06T09:25:08;99944.75;;;-1.88;100.00
34034;BME280;63481;52.588;22.472;2024-01-06T09:30:10;99936.29;;;-1.90;100.00
34034;BME280;63481;52.588;22.472;2024-01-06T09:35:12;99930.58;;;-1.98;100.00
34034;BME280;63481;52.588;22.472;2024-01-06T09:40:21;99932.27;;;-1.88;100.00
34034;BME280;63481;52.588;22.472;2024-01-06T09:45:23;99934.95;;;-2.06;100.00
34034;BME280;63481;52.588;22.472;2024-01-06T09:50:26;99935.13;;;-2.04;100.00
34034;BME280;63481;52.588;22.472;2024-01-06T09:55:28;99941.71;;;-2.08;100.00
34034;BME280;63481;52.588;22.472;2024-01-06T10:00:30;99946.29;;;-2.07;100.00
34034;BME280;63481;52.588;22.472;2024-01-06T10:05:32;99943.39;;;-2.01;100.00
34034;BME280;63481;52.588;22.472;2024-01-06T10:10:34;99943.88;;;-2.03;100.00
34034;BME280;63481;52.588;22.472;2024-01-06T10:15:36;99943.55;;;-1.97;100.00
34034;BME280;63481;52.588;22.472;2024-01-06T10:20:39;99942.83;;;-1.83;100.00
34034;BME280;63481;52.588;22.472;2024-01-06T10:25:41;99937.88;;;-1.88;100.00
34034;BME280;63481;52.588;22.472;2024-01-06T10:30:44;99932.36;;;-1.69;99.89
34034;BME280;63481;52.588;22.472;2024-01-06T10:35:47;99935.69;;;-1.62;99.27
34034;BME280;63481;52.588;22.472;2024-01-06T10:41:02;99941.60;;;-1.68;98.01
34034;BME280;63481;52.588;22.472;2024-01-06T10:46:09;99945.27;;;-1.79;97.68
34034;BME280;63481;52.588;22.472;2024-01-06T10:51:16;99952.05;;;-1.77;97.28
34034;BME280;63481;52.588;22.472;2024-01-06T10:56:19;99948.84;;;-1.57;97.62
34034;BME280;63481;52.588;22.472;2024-01-06T11:01:23;99944.80;;;-1.36;95.36
34034;BME280;63481;52.588;22.472;2024-01-06T11:06:30;99942.97;;;-1.37;93.04
34034;BME280;63481;52.588;22.472;2024-01-06T11:11:35;99943.63;;;-1.29;92.63
34034;BME280;63481;52.588;22.472;2024-01-06T11:16:37;99940.96;;;-1.07;90.10
34034;BME280;63481;52.588;22.472;2024-01-06T11:21:40;99934.08;;;-1.19;89.40
34034;BME280;63481;52.588;22.472;2024-01-06T11:26:43;99924.74;;;-1.38;90.15
34034;BME280;63481;52.588;22.472;2024-01-06T11:37:06;99928.67;;;-1.65;91.33
34034;BME280;63481;52.588;22.472;2024-01-06T11:42:11;99926.00;;;-1.67;92.71
34034;BME280;63481;52.588;22.472;2024-01-06T11:47:15;99927.85;;;-1.70;93.07
34034;BME280;63481;52.588;22.472;2024-01-06T11:52:19;99933.90;;;-1.71;91.69
34034;BME280;63481;52.588;22.472;2024-01-06T11:57:22;99928.91;;;-1.62;90.08
34034;BME280;63481;52.588;22.472;2024-01-06T12:02:24;99929.75;;;-1.62;88.23
34034;BME280;63481;52.588;22.472;2024-01-06T12:07:27;99933.66;;;-1.63;86.59
34034;BME280;63481;52.588;22.472;2024-01-06T12:12:29;99931.41;;;-1.71;87.18
34034;BME280;63481;52.588;22.472;2024-01-06T12:17:31;99932.81;;;-1.92;87.58
34034;BME280;63481;52.588;22.472;2024-01-06T12:22:33;99941.27;;;-2.21;88.14
34034;BME280;63481;52.588;22.472;2024-01-06T12:27:42;99948.60;;;-2.43;88.91
34034;BME280;63481;52.588;22.472;2024-01-06T12:32:48;99956.33;;;-2.70;90.07
34034;BME280;63481;52.588;22.472;2024-01-06T12:37:56;99964.98;;;-2.76;91.26
34034;BME280;63481;52.588;22.472;2024-01-06T12:42:58;99962.50;;;-2.77;90.56
34034;BME280;63481;52.588;22.472;2024-01-06T12:48:01;99965.05;;;-2.70;90.40
34034;BME280;63481;52.588;22.472;2024-01-06T12:53:03;99964.08;;;-2.65;90.41
34034;BME280;63481;52.588;22.472;2024-01-06T12:58:05;99971.03;;;-2.51;90.02
34034;BME280;63481;52.588;22.472;2024-01-06T13:03:07;99982.53;;;-2.51;90.22
34034;BME280;63481;52.588;22.472;2024-01-06T13:08:10;99989.81;;;-2.51;89.35
34034;BME280;63481;52.588;22.472;2024-01-06T13:13:12;99993.31;;;-2.72;90.29
34034;BME280;63481;52.588;22.472;2024-01-06T13:18:15;99987.91;;;-2.90;91.06
34034;BME280;63481;52.588;22.472;2024-01-06T13:23:18;99991.34;;;-2.93;91.53
34034;BME280;63481;52.588;22.472;2024-01-06T13:28:21;100001.10;;;-2.98;91.74
34034;BME280;63481;52.588;22.472;2024-01-06T13:33:25;100007.21;;;-3.11;92.28
34034;BME280;63481;52.588;22.472;2024-01-06T13:38:28;100009.79;;;-3.16;93.15
34034;BME280;63481;52.588;22.472;2024-01-06T13:43:30;100011.73;;;-3.23;93.35
34034;BME280;63481;52.588;22.472;2024-01-06T13:48:33;100014.60;;;-3.45;94.62
34034;BME280;63481;52.588;22.472;2024-01-06T13:53:35;100022.02;;;-3.47;94.93
34034;BME280;63481;52.588;22.472;2024-01-06T13:58:38;100027.48;;;-3.59;94.97
34034;BME280;63481;52.588;22.472;2024-01-06T14:03:40;100026.21;;;-3.62;95.87
34034;BME280;63481;52.588;22.472;2024-01-06T14:08:42;100033.20;;;-3.76;96.85
34034;BME280;63481;52.588;22.472;2024-01-06T14:13:45;100035.05;;;-3.88;97.76
34034;BME280;63481;52.588;22.472;2024-01-06T14:18:51;100042.11;;;-3.98;97.78
34034;BME280;63481;52.588;22.472;2024-01-06T14:23:53;100047.27;;;-4.09;98.31
34034;BME280;63481;52.588;22.472;2024-01-06T14:28:55;100053.04;;;-4.14;99.43
34034;BME280;63481;52.588;22.472;2024-01-06T14:33:57;100058.58;;;-4.16;99.39
34034;BME280;63481;52.588;22.472;2024-01-06T14:38:59;100059.76;;;-4.40;100.00
34034;BME280;63481;52.588;22.472;2024-01-06T14:44:02;100068.41;;;-4.63;100.00
34034;BME280;63481;52.588;22.472;2024-01-06T14:49:04;100069.27;;;-4.72;100.00
34034;BME280;63481;52.588;22.472;2024-01-06T14:54:06;100077.18;;;-4.75;100.00
34034;BME280;63481;52.588;22.472;2024-01-06T14:59:10;100080.31;;;-4.80;100.00
34034;BME280;63481;52.588;22.472;2024-01-06T15:04:12;100077.20;;;-4.78;100.00
34034;BME280;63481;52.588;22.472;2024-01-06T15:09:17;100077.31;;;-4.84;100.00
34034;BME280;63481;52.588;22.472;2024-01-06T15:14:19;100083.30;;;-4.83;100.00
34034;BME280;63481;52.588;22.472;2024-01-06T15:19:21;100089.59;;;-4.91;100.00
34034;BME280;63481;52.588;22.472;2024-01-06T15:24:29;100093.29;;;-4.99;100.00
34034;BME280;63481;52.588;22.472;2024-01-06T15:29:31;100090.58;;;-5.00;100.00
34034;BME280;63481;52.588;22.472;2024-01-06T15:34:34;100097.12;;;-5.08;100.00
34034;BME280;63481;52.588;22.472;2024-01-06T15:39:36;100103.17;;;-5.06;100.00
34034;BME280;63481;52.588;22.472;2024-01-06T15:44:38;100103.34;;;-5.13;100.00
34034;BME280;63481;52.588;22.472;2024-01-06T15:49:40;100109.05;;;-5.01;100.00
34034;BME280;63481;52.588;22.472;2024-01-06T15:54:43;100118.14;;;-5.14;100.00
34034;BME280;63481;52.588;22.472;2024-01-06T15:59:45;100128.75;;;-5.24;100.00
34034;BME280;63481;52.588;22.472;2024-01-06T16:04:47;100142.42;;;-5.38;100.00
34034;BME280;63481;52.588;22.472;2024-01-06T16:09:49;100151.15;;;-5.34;100.00
34034;BME280;63481;52.588;22.472;2024-01-06T16:14:51;100150.63;;;-5.37;100.00
34034;BME280;63481;52.588;22.472;2024-01-06T16:19:54;100159.09;;;-5.44;100.00
34034;BME280;63481;52.588;22.472;2024-01-06T16:24:56;100167.77;;;-5.51;100.00
34034;BME280;63481;52.588;22.472;2024-01-06T16:29:58;100176.76;;;-5.53;100.00
34034;BME280;63481;52.588;22.472;2024-01-06T16:35:00;100182.33;;;-5.66;100.00
34034;BME280;63481;52.588;22.472;2024-01-06T16:40:04;100186.19;;;-5.77;100.00
34034;BME280;63481;52.588;22.472;2024-01-06T16:45:08;100187.52;;;-5.83;100.00
34034;BME280;63481;52.588;22.472;2024-01-06T16:50:10;100188.64;;;-5.80;100.00
34034;BME280;63481;52.588;22.472;2024-01-06T16:55:13;100182.98;;;-5.83;100.00
34034;BME280;63481;52.588;22.472;2024-01-06T17:00:17;100186.30;;;-5.86;100.00
34034;BME280;63481;52.588;22.472;2024-01-06T17:05:20;100189.46;;;-5.84;100.00
34034;BME280;63481;52.588;22.472;2024-01-06T17:10:22;100203.55;;;-5.92;100.00
34034;BME280;63481;52.588;22.472;2024-01-06T17:15:24;100206.43;;;-5.89;100.00
34034;BME280;63481;52.588;22.472;2024-01-06T17:20:28;100208.38;;;-5.95;100.00
34034;BME280;63481;52.588;22.472;2024-01-06T17:25:31;100206.05;;;-6.06;100.00
34034;BME280;63481;52.588;22.472;2024-01-06T17:30:34;100207.75;;;-6.06;100.00
34034;BME280;63481;52.588;22.472;2024-01-06T17:35:39;100219.88;;;-6.27;100.00
34034;BME280;63481;52.588;22.472;2024-01-06T17:40:41;100227.55;;;-6.30;100.00
34034;BME280;63481;52.588;22.472;2024-01-06T17:45:43;100233.34;;;-6.31;100.00
34034;BME280;63481;52.588;22.472;2024-01-06T17:50:45;100236.84;;;-6.37;100.00
34034;BME280;63481;52.588;22.472;2024-01-06T17:55:47;100243.62;;;-6.46;100.00
34034;BME280;63481;52.588;22.472;2024-01-06T18:00:49;100255.39;;;-6.49;100.00
34034;BME280;63481;52.588;22.472;2024-01-06T18:05:51;100251.21;;;-6.48;100.00
34034;BME280;63481;52.588;22.472;2024-01-06T18:10:54;100263.40;;;-6.60;100.00
34034;BME280;63481;52.588;22.472;2024-01-06T18:15:56;100272.67;;;-6.78;100.00
34034;BME280;63481;52.588;22.472;2024-01-06T18:20:58;100278.81;;;-6.77;100.00
34034;BME280;63481;52.588;22.472;2024-01-06T18:26:00;100278.05;;;-7.00;100.00
34034;BME280;63481;52.588;22.472;2024-01-06T18:31:03;100280.76;;;-7.08;100.00
34034;BME280;63481;52.588;22.472;2024-01-06T18:36:05;100286.04;;;-7.12;100.00
34034;BME280;63481;52.588;22.472;2024-01-06T18:41:08;100285.94;;;-7.16;100.00
34034;BME280;63481;52.588;22.472;2024-01-06T18:46:10;100282.98;;;-7.16;100.00
34034;BME280;63481;52.588;22.472;2024-01-06T18:51:13;100283.45;;;-7.29;100.00
34034;BME280;63481;52.588;22.472;2024-01-06T18:56:15;100289.17;;;-7.35;100.00
34034;BME280;63481;52.588;22.472;2024-01-06T19:01:17;100295.73;;;-7.33;100.00
34034;BME280;63481;52.588;22.472;2024-01-06T19:06:19;100298.47;;;-7.40;100.00
34034;BME280;63481;52.588;22.472;2024-01-06T19:11:21;100303.63;;;-7.43;100.00
34034;BME280;63481;52.588;22.472;2024-01-06T19:16:23;100301.80;;;-7.47;100.00
34034;BME280;63481;52.588;22.472;2024-01-06T19:21:25;100302.32;;;-7.41;100.00
34034;BME280;63481;52.588;22.472;2024-01-06T19:26:27;100304.89;;;-7.35;100.00
34034;BME280;63481;52.588;22.472;2024-01-06T19:31:30;100302.89;;;-7.39;100.00
34034;BME280;63481;52.588;22.472;2024-01-06T19:36:32;100304.64;;;-7.48;100.00
34034;BME280;63481;52.588;22.472;2024-01-06T19:41:34;100305.09;;;-7.56;100.00
34034;BME280;63481;52.588;22.472;2024-01-06T19:46:36;100316.20;;;-7.62;100.00
34034;BME280;63481;52.588;22.472;2024-01-06T19:51:40;100319.02;;;-7.75;100.00
34034;BME280;63481;52.588;22.472;2024-01-06T19:56:44;100317.00;;;-7.76;100.00
34034;BME280;63481;52.588;22.472;2024-01-06T20:01:46;100319.77;;;-7.73;100.00
34034;BME280;63481;52.588;22.472;2024-01-06T20:06:49;100326.93;;;-7.90;100.00
34034;BME280;63481;52.588;22.472;2024-01-06T20:11:52;100325.10;;;-7.85;100.00
34034;BME280;63481;52.588;22.472;2024-01-06T20:16:54;100321.98;;;-7.85;100.00
34034;BME280;63481;52.588;22.472;2024-01-06T20:21:57;100320.98;;;-7.88;100.00
34034;BME280;63481;52.588;22.472;2024-01-06T20:26:59;100320.80;;;-7.97;100.00
34034;BME280;63481;52.588;22.472;2024-01-06T20:32:02;100322.39;;;-8.00;100.00
34034;BME280;63481;52.588;22.472;2024-01-06T20:37:04;100321.43;;;-8.08;100.00
34034;BME280;63481;52.588;22.472;2024-01-06T20:42:06;100327.85;;;-8.14;100.00
34034;BME280;63481;52.588;22.472;2024-01-06T20:47:09;100332.70;;;-8.21;100.00
34034;BME280;63481;52.588;22.472;2024-01-06T20:52:11;100330.67;;;-8.21;100.00
34034;BME280;63481;52.588;22.472;2024-01-06T20:57:13;100335.71;;;-8.28;100.00
34034;BME280;63481;52.588;22.472;2024-01-06T21:02:15;100330.89;;;-8.40;100.00
34034;BME280;63481;52.588;22.472;2024-01-06T21:07:19;100329.48;;;-8.46;100.00
34034;BME280;63481;52.588;22.472;2024-01-06T21:12:21;100328.98;;;-8.39;100.00
34034;BME280;63481;52.588;22.472;2024-01-06T21:17:24;100334.98;;;-8.33;100.00
34034;BME280;63481;52.588;22.472;2024-01-06T21:22:26;100335.23;;;-8.25;100.00
34034;BME280;63481;52.588;22.472;2024-01-06T21:27:28;100333.14;;;-8.34;100.00
34034;BME280;63481;52.588;22.472;2024-01-06T21:32:31;100333.22;;;-8.35;100.00
34034;BME280;63481;52.588;22.472;2024-01-06T21:37:34;100333.55;;;-8.24;100.00
34034;BME280;63481;52.588;22.472;2024-01-06T21:42:36;100336.25;;;-8.04;100.00
34034;BME280;63481;52.588;22.472;2024-01-06T21:47:40;100329.39;;;-7.90;100.00
34034;BME280;63481;52.588;22.472;2024-01-06T21:52:43;100331.93;;;-7.63;100.00
34034;BME280;63481;52.588;22.472;2024-01-06T21:57:46;100329.02;;;-7.46;100.00
34034;BME280;63481;52.588;22.472;2024-01-06T22:02:48;100334.54;;;-7.20;100.00
34034;BME280;63481;52.588;22.472;2024-01-06T22:07:52;100337.45;;;-6.97;100.00
34034;BME280;63481;52.588;22.472;2024-01-06T22:12:55;100340.02;;;-6.75;100.00
34034;BME280;63481;52.588;22.472;2024-01-06T22:18:16;100343.17;;;-6.45;100.00
34034;BME280;63481;52.588;22.472;2024-01-06T22:23:24;100344.34;;;-6.15;100.00
34034;BME280;63481;52.588;22.472;2024-01-06T22:28:27;100346.73;;;-5.98;100.00
34034;BME280;63481;52.588;22.472;2024-01-06T22:33:29;100341.96;;;-5.89;100.00
34034;BME280;63481;52.588;22.472;2024-01-06T22:38:31;100343.75;;;-5.77;100.00
34034;BME280;63481;52.588;22.472;2024-01-06T22:43:33;100347.18;;;-5.72;100.00
34034;BME280;63481;52.588;22.472;2024-01-06T22:48:35;100346.70;;;-5.82;100.00
34034;BME280;63481;52.588;22.472;2024-01-06T22:53:37;100342.52;;;-5.77;100.00
34034;BME280;63481;52.588;22.472;2024-01-06T22:58:39;100350.48;;;-5.77;100.00
34034;BME280;63481;52.588;22.472;2024-01-06T23:03:42;100353.95;;;-5.72;100.00
34034;BME280;63481;52.588;22.472;2024-01-06T23:08:44;100356.77;;;-5.65;100.00
34034;BME280;63481;52.588;22.472;2024-01-06T23:13:46;100355.35;;;-5.57;100.00
34034;BME280;63481;52.588;22.472;2024-01-06T23:18:48;100362.98;;;-5.54;100.00
34034;BME280;63481;52.588;22.472;2024-01-06T23:23:50;100361.38;;;-5.54;100.00
34034;BME280;63481;52.588;22.472;2024-01-06T23:28:52;100364.96;;;-5.71;100.00
34034;BME280;63481;52.588;22.472;2024-01-06T23:33:54;100369.20;;;-5.93;100.00
34034;BME280;63481;52.588;22.472;2024-01-06T23:38:56;100371.63;;;-6.31;100.00
34034;BME280;63481;52.588;22.472;2024-01-06T23:43:59;100376.14;;;-6.61;100.00
34034;BME280;63481;52.588;22.472;2024-01-06T23:49:01;100381.00;;;-6.77;100.00
34034;BME280;63481;52.588;22.472;2024-01-06T23:54:04;100379.98;;;-7.00;100.00
34034;BME280;63481;52.588;22.472;2024-01-06T23:59:06;100381.75;;;-7.07;100.00
